sensor_id;sensor_type;location;lat;lon;timestamp;P1;durP1;ratioP1;P2;durP2;ratioP2
74158;SDS011;62511;47.970;11.774;2022-11-09T00:00:38;5.85;;;2.78;;
74158;SDS011;62511;47.970;11.774;2022-11-09T00:03:04;3.28;;;1.90;;
74158;SDS011;62511;47.970;11.774;2022-11-09T00:05:31;4.75;;;1.88;;
74158;SDS011;62511;47.970;11.774;2022-11-09T00:07:57;1.92;;;1.20;;
74158;SDS011;62511;47.970;11.774;2022-11-09T00:10:24;3.17;;;1.65;;
74158;SDS011;62511;47.970;11.774;2022-11-09T00:12:53;3.88;;;1.67;;
74158;SDS011;62511;47.970;11.774;2022-11-09T00:15:19;3.90;;;2.30;;
74158;SDS011;62511;47.970;11.774;2022-11-09T00:17:46;3.70;;;1.88;;
74158;SDS011;62511;47.970;11.774;2022-11-09T00:20:12;5.55;;;2.45;;
74158;SDS011;62511;47.970;11.774;2022-11-09T00:22:39;7.00;;;3.08;;
74158;SDS011;62511;47.970;11.774;2022-11-09T00:25:06;5.22;;;2.00;;
74158;SDS011;62511;47.970;11.774;2022-11-09T00:27:32;2.38;;;1.48;;
74158;SDS011;62511;47.970;11.774;2022-11-09T00:29:58;2.15;;;1.63;;
74158;SDS011;62511;47.970;11.774;2022-11-09T00:32:24;2.42;;;1.70;;
74158;SDS011;62511;47.970;11.774;2022-11-09T00:34:50;2.60;;;1.83;;
74158;SDS011;62511;47.970;11.774;2022-11-09T00:37:17;2.63;;;1.58;;
74158;SDS011;62511;47.970;11.774;2022-11-09T00:39:43;3.58;;;1.70;;
74158;SDS011;62511;47.970;11.774;2022-11-09T00:42:11;3.88;;;1.90;;
74158;SDS011;62511;47.970;11.774;2022-11-09T00:44:43;4.22;;;1.92;;
74158;SDS011;62511;47.970;11.774;2022-11-09T00:47:11;4.88;;;1.60;;
74158;SDS011;62511;47.970;11.774;2022-11-09T00:49:38;3.53;;;1.88;;
74158;SDS011;62511;47.970;11.774;2022-11-09T00:52:04;3.03;;;1.95;;
74158;SDS011;62511;47.970;11.774;2022-11-09T00:54:30;2.67;;;1.83;;
74158;SDS011;62511;47.970;11.774;2022-11-09T00:56:59;3.20;;;1.80;;
74158;SDS011;62511;47.970;11.774;2022-11-09T00:59:25;5.32;;;2.47;;
74158;SDS011;62511;47.970;11.774;2022-11-09T01:01:51;1.95;;;1.42;;
74158;SDS011;62511;47.970;11.774;2022-11-09T01:04:17;3.67;;;1.65;;
74158;SDS011;62511;47.970;11.774;2022-11-09T01:06:43;2.83;;;1.75;;
74158;SDS011;62511;47.970;11.774;2022-11-09T01:09:11;3.05;;;1.50;;
74158;SDS011;62511;47.970;11.774;2022-11-09T01:11:37;4.05;;;1.83;;
74158;SDS011;62511;47.970;11.774;2022-11-09T01:14:03;3.53;;;1.80;;
74158;SDS011;62511;47.970;11.774;2022-11-09T01:16:29;1.70;;;1.52;;
74158;SDS011;62511;47.970;11.774;2022-11-09T01:18:57;2.67;;;1.67;;
74158;SDS011;62511;47.970;11.774;2022-11-09T01:21:24;2.60;;;1.55;;
74158;SDS011;62511;47.970;11.774;2022-11-09T01:23:50;2.33;;;1.20;;
74158;SDS011;62511;47.970;11.774;2022-11-09T01:26:16;1.65;;;1.33;;
74158;SDS011;62511;47.970;11.774;2022-11-09T01:28:45;1.77;;;1.30;;
74158;SDS011;62511;47.970;11.774;2022-11-09T01:31:16;2.70;;;1.55;;
74158;SDS011;62511;47.970;11.774;2022-11-09T01:33:43;2.03;;;1.17;;
74158;SDS011;62511;47.970;11.774;2022-11-09T01:36:10;2.78;;;1.58;;
74158;SDS011;62511;47.970;11.774;2022-11-09T01:46:03;1.00;;;0.80;;
74158;SDS011;62511;47.970;11.774;2022-11-09T01:48:44;2.53;;;1.67;;
74158;SDS011;62511;47.970;11.774;2022-11-09T01:51:13;1.55;;;1.40;;
74158;SDS011;62511;47.970;11.774;2022-11-09T01:53:40;3.40;;;1.48;;
74158;SDS011;62511;47.970;11.774;2022-11-09T01:56:08;1.73;;;1.20;;
74158;SDS011;62511;47.970;11.774;2022-11-09T01:58:38;1.63;;;1.33;;
74158;SDS011;62511;47.970;11.774;2022-11-09T02:01:08;3.03;;;1.33;;
74158;SDS011;62511;47.970;11.774;2022-11-09T02:03:39;6.25;;;1.02;;
74158;SDS011;62511;47.970;11.774;2022-11-09T02:06:07;2.78;;;1.13;;
74158;SDS011;62511;47.970;11.774;2022-11-09T02:08:35;3.50;;;1.40;;
74158;SDS011;62511;47.970;11.774;2022-11-09T02:11:04;1.92;;;1.25;;
74158;SDS011;62511;47.970;11.774;2022-11-09T02:13:31;1.70;;;1.05;;
74158;SDS011;62511;47.970;11.774;2022-11-09T02:15:58;1.60;;;1.00;;
74158;SDS011;62511;47.970;11.774;2022-11-09T02:18:26;1.98;;;1.40;;
74158;SDS011;62511;47.970;11.774;2022-11-09T02:20:56;3.67;;;1.55;;
74158;SDS011;62511;47.970;11.774;2022-11-09T02:23:25;3.67;;;1.70;;
74158;SDS011;62511;47.970;11.774;2022-11-09T02:25:54;2.10;;;1.60;;
74158;SDS011;62511;47.970;11.774;2022-11-09T02:28:22;2.30;;;1.42;;
74158;SDS011;62511;47.970;11.774;2022-11-09T02:33:17;3.30;;;1.70;;
74158;SDS011;62511;47.970;11.774;2022-11-09T02:35:44;3.28;;;1.75;;
74158;SDS011;62511;47.970;11.774;2022-11-09T02:38:12;3.45;;;1.48;;
74158;SDS011;62511;47.970;11.774;2022-11-09T02:40:43;2.25;;;1.30;;
74158;SDS011;62511;47.970;11.774;2022-11-09T02:43:15;2.47;;;1.35;;
74158;SDS011;62511;47.970;11.774;2022-11-09T02:45:42;3.50;;;1.63;;
74158;SDS011;62511;47.970;11.774;2022-11-09T02:48:08;1.77;;;1.30;;
74158;SDS011;62511;47.970;11.774;2022-11-09T02:50:35;2.25;;;1.38;;
74158;SDS011;62511;47.970;11.774;2022-11-09T02:53:01;2.90;;;1.17;;
74158;SDS011;62511;47.970;11.774;2022-11-09T02:55:27;4.28;;;1.33;;
74158;SDS011;62511;47.970;11.774;2022-11-09T02:57:53;2.17;;;1.13;;
74158;SDS011;62511;47.970;11.774;2022-11-09T03:00:20;2.28;;;0.98;;
74158;SDS011;62511;47.970;11.774;2022-11-09T03:02:47;2.60;;;1.25;;
74158;SDS011;62511;47.970;11.774;2022-11-09T03:05:13;0.93;;;0.90;;
74158;SDS011;62511;47.970;11.774;2022-11-09T03:07:39;2.05;;;1.05;;
74158;SDS011;62511;47.970;11.774;2022-11-09T03:10:06;2.50;;;1.20;;
74158;SDS011;62511;47.970;11.774;2022-11-09T03:12:35;1.48;;;0.80;;
74158;SDS011;62511;47.970;11.774;2022-11-09T03:15:02;1.77;;;1.23;;
74158;SDS011;62511;47.970;11.774;2022-11-09T03:17:30;1.42;;;0.90;;
74158;SDS011;62511;47.970;11.774;2022-11-09T03:19:57;1.63;;;1.15;;
74158;SDS011;62511;47.970;11.774;2022-11-09T03:22:23;1.25;;;0.90;;
74158;SDS011;62511;47.970;11.774;2022-11-09T03:24:50;1.92;;;1.23;;
74158;SDS011;62511;47.970;11.774;2022-11-09T03:27:17;1.35;;;0.82;;
74158;SDS011;62511;47.970;11.774;2022-11-09T03:29:46;1.73;;;0.98;;
74158;SDS011;62511;47.970;11.774;2022-11-09T03:32:12;1.40;;;0.82;;
74158;SDS011;62511;47.970;11.774;2022-11-09T03:34:38;1.85;;;1.15;;
74158;SDS011;62511;47.970;11.774;2022-11-09T03:37:04;1.50;;;0.90;;
74158;SDS011;62511;47.970;11.774;2022-11-09T03:39:33;1.90;;;0.90;;
74158;SDS011;62511;47.970;11.774;2022-11-09T03:42:00;1.33;;;1.00;;
74158;SDS011;62511;47.970;11.774;2022-11-09T03:44:26;2.17;;;1.30;;
74158;SDS011;62511;47.970;11.774;2022-11-09T03:46:53;3.22;;;1.45;;
74158;SDS011;62511;47.970;11.774;2022-11-09T03:49:19;1.65;;;1.13;;
74158;SDS011;62511;47.970;11.774;2022-11-09T03:51:47;1.88;;;1.02;;
74158;SDS011;62511;47.970;11.774;2022-11-09T03:54:15;1.50;;;0.80;;
74158;SDS011;62511;47.970;11.774;2022-11-09T03:56:42;1.90;;;1.05;;
74158;SDS011;62511;47.970;11.774;2022-11-09T03:59:08;1.30;;;0.85;;
74158;SDS011;62511;47.970;11.774;2022-11-09T04:01:34;3.15;;;1.35;;
74158;SDS011;62511;47.970;11.774;2022-11-09T04:04:00;1.88;;;1.20;;
74158;SDS011;62511;47.970;11.774;2022-11-09T04:06:26;3.08;;;1.30;;
74158;SDS011;62511;47.970;11.774;2022-11-09T04:08:52;1.75;;;1.08;;
74158;SDS011;62511;47.970;11.774;2022-11-09T04:11:18;1.10;;;1.00;;
74158;SDS011;62511;47.970;11.774;2022-11-09T04:13:44;1.67;;;1.02;;
74158;SDS011;62511;47.970;11.774;2022-11-09T04:16:11;1.85;;;1.05;;
74158;SDS011;62511;47.970;11.774;2022-11-09T04:18:38;2.40;;;1.20;;
74158;SDS011;62511;47.970;11.774;2022-11-09T04:21:10;3.03;;;1.27;;
74158;SDS011;62511;47.970;11.774;2022-11-09T04:23:36;1.83;;;1.17;;
74158;SDS011;62511;47.970;11.774;2022-11-09T04:26:02;2.08;;;1.30;;
74158;SDS011;62511;47.970;11.774;2022-11-09T04:28:28;1.52;;;0.90;;
74158;SDS011;62511;47.970;11.774;2022-11-09T04:30:58;1.65;;;1.10;;
74158;SDS011;62511;47.970;11.774;2022-11-09T04:33:26;1.08;;;0.80;;
74158;SDS011;62511;47.970;11.774;2022-11-09T04:35:53;1.05;;;0.80;;
74158;SDS011;62511;47.970;11.774;2022-11-09T04:38:19;1.77;;;0.70;;
74158;SDS011;62511;47.970;11.774;2022-11-09T04:40:46;2.88;;;0.90;;
74158;SDS011;62511;47.970;11.774;2022-11-09T04:43:20;1.42;;;1.08;;
74158;SDS011;62511;47.970;11.774;2022-11-09T04:45:46;3.03;;;1.00;;
74158;SDS011;62511;47.970;11.774;2022-11-09T04:48:12;0.90;;;0.60;;
74158;SDS011;62511;47.970;11.774;2022-11-09T04:50:38;3.67;;;0.70;;
74158;SDS011;62511;47.970;11.774;2022-11-09T04:53:05;0.95;;;0.70;;
74158;SDS011;62511;47.970;11.774;2022-11-09T04:55:33;1.55;;;0.85;;
74158;SDS011;62511;47.970;11.774;2022-11-09T04:57:59;0.80;;;0.77;;
74158;SDS011;62511;47.970;11.774;2022-11-09T05:00:25;3.08;;;1.10;;
74158;SDS011;62511;47.970;11.774;2022-11-09T05:02:52;3.72;;;1.30;;
74158;SDS011;62511;47.970;11.774;2022-11-09T05:05:18;2.92;;;0.98;;
74158;SDS011;62511;47.970;11.774;2022-11-09T05:07:45;1.45;;;0.90;;
74158;SDS011;62511;47.970;11.774;2022-11-09T05:12:37;2.97;;;1.00;;
74158;SDS011;62511;47.970;11.774;2022-11-09T05:15:03;1.83;;;0.70;;
74158;SDS011;62511;47.970;11.774;2022-11-09T05:17:29;1.00;;;0.80;;
74158;SDS011;62511;47.970;11.774;2022-11-09T05:19:56;2.42;;;0.60;;
74158;SDS011;62511;47.970;11.774;2022-11-09T05:22:26;2.20;;;0.88;;
74158;SDS011;62511;47.970;11.774;2022-11-09T05:25:10;1.70;;;1.02;;
74158;SDS011;62511;47.970;11.774;2022-11-09T05:27:37;0.93;;;0.73;;
74158;SDS011;62511;47.970;11.774;2022-11-09T05:30:04;4.90;;;0.80;;
74158;SDS011;62511;47.970;11.774;2022-11-09T05:32:37;0.73;;;0.68;;
74158;SDS011;62511;47.970;11.774;2022-11-09T05:35:03;0.73;;;0.63;;
74158;SDS011;62511;47.970;11.774;2022-11-09T05:37:30;1.27;;;0.68;;
74158;SDS011;62511;47.970;11.774;2022-11-09T05:39:58;2.28;;;0.75;;
74158;SDS011;62511;47.970;11.774;2022-11-09T05:42:39;1.38;;;0.93;;
74158;SDS011;62511;47.970;11.774;2022-11-09T05:45:08;1.80;;;1.00;;
74158;SDS011;62511;47.970;11.774;2022-11-09T05:47:52;1.13;;;0.73;;
74158;SDS011;62511;47.970;11.774;2022-11-09T05:50:18;1.45;;;0.80;;
74158;SDS011;62511;47.970;11.774;2022-11-09T05:52:45;2.63;;;1.38;;
74158;SDS011;62511;47.970;11.774;2022-11-09T05:55:11;3.70;;;1.38;;
74158;SDS011;62511;47.970;11.774;2022-11-09T05:57:38;4.32;;;2.00;;
74158;SDS011;62511;47.970;11.774;2022-11-09T06:00:05;1.75;;;1.38;;
74158;SDS011;62511;47.970;11.774;2022-11-09T06:02:32;2.30;;;1.35;;
74158;SDS011;62511;47.970;11.774;2022-11-09T06:05:00;1.77;;;1.13;;
74158;SDS011;62511;47.970;11.774;2022-11-09T06:07:30;1.48;;;0.98;;
74158;SDS011;62511;47.970;11.774;2022-11-09T06:09:57;2.42;;;1.42;;
74158;SDS011;62511;47.970;11.774;2022-11-09T06:12:23;1.42;;;1.10;;
74158;SDS011;62511;47.970;11.774;2022-11-09T06:14:50;2.28;;;1.15;;
74158;SDS011;62511;47.970;11.774;2022-11-09T06:17:18;2.15;;;1.33;;
74158;SDS011;62511;47.970;11.774;2022-11-09T06:19:44;2.13;;;1.02;;
74158;SDS011;62511;47.970;11.774;2022-11-09T06:22:10;4.18;;;1.20;;
74158;SDS011;62511;47.970;11.774;2022-11-09T06:24:38;1.63;;;1.45;;
74158;SDS011;62511;47.970;11.774;2022-11-09T06:27:04;3.35;;;1.70;;
74158;SDS011;62511;47.970;11.774;2022-11-09T06:29:30;3.60;;;2.03;;
74158;SDS011;62511;47.970;11.774;2022-11-09T06:31:58;2.80;;;1.80;;
74158;SDS011;62511;47.970;11.774;2022-11-09T06:34:24;5.13;;;2.47;;
74158;SDS011;62511;47.970;11.774;2022-11-09T06:36:50;5.78;;;2.47;;
74158;SDS011;62511;47.970;11.774;2022-11-09T06:39:16;2.53;;;1.27;;
74158;SDS011;62511;47.970;11.774;2022-11-09T06:41:42;5.03;;;1.95;;
74158;SDS011;62511;47.970;11.774;2022-11-09T06:44:08;8.32;;;3.55;;
74158;SDS011;62511;47.970;11.774;2022-11-09T06:46:34;14.55;;;5.15;;
74158;SDS011;62511;47.970;11.774;2022-11-09T06:49:00;10.98;;;4.60;;
74158;SDS011;62511;47.970;11.774;2022-11-09T06:51:26;7.28;;;3.28;;
74158;SDS011;62511;47.970;11.774;2022-11-09T06:53:54;6.43;;;2.83;;
74158;SDS011;62511;47.970;11.774;2022-11-09T06:56:20;6.72;;;3.08;;
74158;SDS011;62511;47.970;11.774;2022-11-09T06:58:47;5.07;;;2.03;;
74158;SDS011;62511;47.970;11.774;2022-11-09T07:01:14;2.75;;;1.50;;
74158;SDS011;62511;47.970;11.774;2022-11-09T07:06:10;1.88;;;1.17;;
74158;SDS011;62511;47.970;11.774;2022-11-09T07:08:39;3.58;;;1.20;;
74158;SDS011;62511;47.970;11.774;2022-11-09T07:11:06;3.40;;;2.42;;
74158;SDS011;62511;47.970;11.774;2022-11-09T07:13:33;1.88;;;1.65;;
74158;SDS011;62511;47.970;11.774;2022-11-09T07:16:00;1.50;;;1.30;;
74158;SDS011;62511;47.970;11.774;2022-11-09T07:18:26;2.50;;;0.90;;
74158;SDS011;62511;47.970;11.774;2022-11-09T07:20:52;1.27;;;0.90;;
74158;SDS011;62511;47.970;11.774;2022-11-09T07:23:21;1.33;;;0.80;;
74158;SDS011;62511;47.970;11.774;2022-11-09T07:25:47;2.28;;;0.95;;
74158;SDS011;62511;47.970;11.774;2022-11-09T07:28:13;2.15;;;0.93;;
74158;SDS011;62511;47.970;11.774;2022-11-09T07:30:41;2.72;;;0.68;;
74158;SDS011;62511;47.970;11.774;2022-11-09T07:33:11;2.60;;;0.90;;
74158;SDS011;62511;47.970;11.774;2022-11-09T07:35:38;0.85;;;0.60;;
74158;SDS011;62511;47.970;11.774;2022-11-09T07:38:03;1.30;;;0.90;;
74158;SDS011;62511;47.970;11.774;2022-11-09T07:40:33;1.05;;;0.52;;
74158;SDS011;62511;47.970;11.774;2022-11-09T07:43:03;0.88;;;0.82;;
74158;SDS011;62511;47.970;11.774;2022-11-09T07:45:30;2.08;;;0.75;;
74158;SDS011;62511;47.970;11.774;2022-11-09T07:48:04;1.27;;;0.60;;
74158;SDS011;62511;47.970;11.774;2022-11-09T07:50:31;1.45;;;0.70;;
74158;SDS011;62511;47.970;11.774;2022-11-09T07:52:59;1.67;;;0.68;;
74158;SDS011;62511;47.970;11.774;2022-11-09T07:55:26;2.47;;;0.70;;
74158;SDS011;62511;47.970;11.774;2022-11-09T07:57:56;1.52;;;0.90;;
74158;SDS011;62511;47.970;11.774;2022-11-09T08:00:22;1.05;;;0.75;;
74158;SDS011;62511;47.970;11.774;2022-11-09T08:02:48;3.90;;;0.60;;
74158;SDS011;62511;47.970;11.774;2022-11-09T08:05:14;1.67;;;0.80;;
74158;SDS011;62511;47.970;11.774;2022-11-09T08:07:40;2.70;;;1.20;;
74158;SDS011;62511;47.970;11.774;2022-11-09T08:10:08;7.13;;;2.33;;
74158;SDS011;62511;47.970;11.774;2022-11-09T08:12:35;5.50;;;2.33;;
74158;SDS011;62511;47.970;11.774;2022-11-09T08:15:02;3.08;;;1.42;;
74158;SDS011;62511;47.970;11.774;2022-11-09T08:17:28;10.20;;;2.60;;
74158;SDS011;62511;47.970;11.774;2022-11-09T08:19:55;7.00;;;2.85;;
74158;SDS011;62511;47.970;11.774;2022-11-09T08:22:21;3.15;;;1.70;;
74158;SDS011;62511;47.970;11.774;2022-11-09T08:24:48;1.55;;;0.90;;
74158;SDS011;62511;47.970;11.774;2022-11-09T08:27:14;1.20;;;0.90;;
74158;SDS011;62511;47.970;11.774;2022-11-09T08:29:40;1.45;;;0.85;;
74158;SDS011;62511;47.970;11.774;2022-11-09T08:32:06;1.73;;;0.70;;
74158;SDS011;62511;47.970;11.774;2022-11-09T08:34:33;2.25;;;1.27;;
74158;SDS011;62511;47.970;11.774;2022-11-09T08:37:00;6.38;;;2.00;;
74158;SDS011;62511;47.970;11.774;2022-11-09T08:39:26;4.57;;;1.70;;
74158;SDS011;62511;47.970;11.774;2022-11-09T08:41:54;3.88;;;1.40;;
74158;SDS011;62511;47.970;11.774;2022-11-09T08:44:20;2.03;;;0.88;;
74158;SDS011;62511;47.970;11.774;2022-11-09T08:46:48;2.40;;;0.75;;
74158;SDS011;62511;47.970;11.774;2022-11-09T08:49:17;1.60;;;0.82;;
74158;SDS011;62511;47.970;11.774;2022-11-09T08:51:48;0.90;;;0.57;;
74158;SDS011;62511;47.970;11.774;2022-11-09T08:54:15;1.25;;;0.80;;
74158;SDS011;62511;47.970;11.774;2022-11-09T08:56:43;0.60;;;0.52;;
74158;SDS011;62511;47.970;11.774;2022-11-09T08:59:10;0.85;;;0.60;;
74158;SDS011;62511;47.970;11.774;2022-11-09T09:01:36;1.58;;;0.70;;
74158;SDS011;62511;47.970;11.774;2022-11-09T09:04:02;0.80;;;0.73;;
74158;SDS011;62511;47.970;11.774;2022-11-09T09:06:28;1.42;;;0.57;;
74158;SDS011;62511;47.970;11.774;2022-11-09T09:08:55;0.65;;;0.60;;
74158;SDS011;62511;47.970;11.774;2022-11-09T09:11:21;2.47;;;0.90;;
74158;SDS011;62511;47.970;11.774;2022-11-09T09:13:47;2.10;;;0.70;;
74158;SDS011;62511;47.970;11.774;2022-11-09T09:16:13;1.48;;;0.70;;
74158;SDS011;62511;47.970;11.774;2022-11-09T09:18:40;0.73;;;0.63;;
74158;SDS011;62511;47.970;11.774;2022-11-09T09:21:07;1.63;;;0.68;;
74158;SDS011;62511;47.970;11.774;2022-11-09T09:23:34;2.28;;;0.80;;
74158;SDS011;62511;47.970;11.774;2022-11-09T09:26:00;2.67;;;0.80;;
74158;SDS011;62511;47.970;11.774;2022-11-09T09:28:26;0.68;;;0.57;;
74158;SDS011;62511;47.970;11.774;2022-11-09T09:30:52;1.23;;;0.50;;
74158;SDS011;62511;47.970;11.774;2022-11-09T09:33:18;0.90;;;0.60;;
74158;SDS011;62511;47.970;11.774;2022-11-09T09:35:44;0.80;;;0.32;;
74158;SDS011;62511;47.970;11.774;2022-11-09T09:38:10;0.75;;;0.45;;
74158;SDS011;62511;47.970;11.774;2022-11-09T09:40:41;0.60;;;0.60;;
74158;SDS011;62511;47.970;11.774;2022-11-09T09:43:20;1.30;;;0.80;;
74158;SDS011;62511;47.970;11.774;2022-11-09T09:45:49;0.63;;;0.50;;
74158;SDS011;62511;47.970;11.774;2022-11-09T09:48:28;1.02;;;0.80;;
74158;SDS011;62511;47.970;11.774;2022-11-09T09:50:57;1.17;;;0.75;;
74158;SDS011;62511;47.970;11.774;2022-11-09T09:53:31;0.85;;;0.50;;
74158;SDS011;62511;47.970;11.774;2022-11-09T09:56:02;1.42;;;0.77;;
74158;SDS011;62511;47.970;11.774;2022-11-09T09:58:31;0.82;;;0.47;;
74158;SDS011;62511;47.970;11.774;2022-11-09T10:01:10;0.63;;;0.57;;
74158;SDS011;62511;47.970;11.774;2022-11-09T10:03:37;1.75;;;0.57;;
74158;SDS011;62511;47.970;11.774;2022-11-09T10:11:40;0.40;;;0.30;;
74158;SDS011;62511;47.970;11.774;2022-11-09T10:17:15;1.25;;;0.60;;
74158;SDS011;62511;47.970;11.774;2022-11-09T10:19:51;0.70;;;0.50;;
74158;SDS011;62511;47.970;11.774;2022-11-09T10:25:00;0.80;;;0.55;;
74158;SDS011;62511;47.970;11.774;2022-11-09T10:30:25;1.45;;;0.50;;
74158;SDS011;62511;47.970;11.774;2022-11-09T10:32:57;1.35;;;0.60;;
74158;SDS011;62511;47.970;11.774;2022-11-09T10:35:29;0.63;;;0.60;;
74158;SDS011;62511;47.970;11.774;2022-11-09T10:38:07;1.45;;;0.73;;
74158;SDS011;62511;47.970;11.774;2022-11-09T10:40:47;2.72;;;1.15;;
74158;SDS011;62511;47.970;11.774;2022-11-09T10:43:14;1.60;;;0.88;;
74158;SDS011;62511;47.970;11.774;2022-11-09T10:45:42;1.15;;;0.60;;
74158;SDS011;62511;47.970;11.774;2022-11-09T10:48:43;0.80;;;0.57;;
74158;SDS011;62511;47.970;11.774;2022-11-09T10:51:40;0.60;;;0.40;;
74158;SDS011;62511;47.970;11.774;2022-11-09T10:54:15;1.00;;;0.60;;
74158;SDS011;62511;47.970;11.774;2022-11-09T10:56:57;2.63;;;1.02;;
74158;SDS011;62511;47.970;11.774;2022-11-09T11:05:25;0.80;;;0.50;;
74158;SDS011;62511;47.970;11.774;2022-11-09T11:07:54;1.73;;;0.63;;
74158;SDS011;62511;47.970;11.774;2022-11-09T11:10:20;0.98;;;0.50;;
74158;SDS011;62511;47.970;11.774;2022-11-09T11:13:19;1.08;;;0.50;;
74158;SDS011;62511;47.970;11.774;2022-11-09T11:15:35;0.60;;;0.60;;
74158;SDS011;62511;47.970;11.774;2022-11-09T11:18:14;0.50;;;0.40;;
74158;SDS011;62511;47.970;11.774;2022-11-09T11:21:05;1.42;;;0.60;;
74158;SDS011;62511;47.970;11.774;2022-11-09T11:23:33;1.73;;;0.90;;
74158;SDS011;62511;47.970;11.774;2022-11-09T11:28:49;0.65;;;0.55;;
74158;SDS011;62511;47.970;11.774;2022-11-09T11:31:22;0.75;;;0.70;;
74158;SDS011;62511;47.970;11.774;2022-11-09T11:33:52;2.20;;;0.60;;
74158;SDS011;62511;47.970;11.774;2022-11-09T11:36:35;0.70;;;0.40;;
74158;SDS011;62511;47.970;11.774;2022-11-09T11:39:12;0.80;;;0.45;;
74158;SDS011;62511;47.970;11.774;2022-11-09T11:46:57;0.85;;;0.50;;
74158;SDS011;62511;47.970;11.774;2022-11-09T11:52:15;0.68;;;0.50;;
74158;SDS011;62511;47.970;11.774;2022-11-09T12:02:45;0.77;;;0.50;;
74158;SDS011;62511;47.970;11.774;2022-11-09T12:09:09;1.48;;;0.50;;
74158;SDS011;62511;47.970;11.774;2022-11-09T12:11:34;3.35;;;0.60;;
74158;SDS011;62511;47.970;11.774;2022-11-09T12:17:16;1.35;;;0.57;;
74158;SDS011;62511;47.970;11.774;2022-11-09T12:25:26;1.20;;;0.40;;
74158;SDS011;62511;47.970;11.774;2022-11-09T12:28:02;1.75;;;0.60;;
74158;SDS011;62511;47.970;11.774;2022-11-09T12:30:51;0.95;;;0.60;;
74158;SDS011;62511;47.970;11.774;2022-11-09T12:33:21;0.63;;;0.60;;
74158;SDS011;62511;47.970;11.774;2022-11-09T12:35:58;3.45;;;0.70;;
74158;SDS011;62511;47.970;11.774;2022-11-09T12:38:33;0.50;;;0.50;;
74158;SDS011;62511;47.970;11.774;2022-11-09T12:41:07;0.50;;;0.50;;
74158;SDS011;62511;47.970;11.774;2022-11-09T12:46:25;0.88;;;0.80;;
74158;SDS011;62511;47.970;11.774;2022-11-09T12:48:52;1.15;;;0.77;;
74158;SDS011;62511;47.970;11.774;2022-11-09T12:51:20;2.17;;;1.10;;
74158;SDS011;62511;47.970;11.774;2022-11-09T12:53:49;2.47;;;0.95;;
74158;SDS011;62511;47.970;11.774;2022-11-09T12:56:30;2.17;;;1.10;;
74158;SDS011;62511;47.970;11.774;2022-11-09T13:01:57;2.03;;;1.00;;
74158;SDS011;62511;47.970;11.774;2022-11-09T13:04:26;1.40;;;0.98;;
74158;SDS011;62511;47.970;11.774;2022-11-09T13:09:32;1.80;;;1.00;;
74158;SDS011;62511;47.970;11.774;2022-11-09T13:12:14;2.53;;;1.20;;
74158;SDS011;62511;47.970;11.774;2022-11-09T13:14:53;1.75;;;1.00;;
74158;SDS011;62511;47.970;11.774;2022-11-09T13:19:59;1.20;;;0.90;;
74158;SDS011;62511;47.970;11.774;2022-11-09T13:23:00;1.85;;;0.75;;
74158;SDS011;62511;47.970;11.774;2022-11-09T13:25:58;1.25;;;1.00;;
74158;SDS011;62511;47.970;11.774;2022-11-09T13:30:55;1.60;;;1.08;;
74158;SDS011;62511;47.970;11.774;2022-11-09T13:35:57;5.03;;;2.70;;
74158;SDS011;62511;47.970;11.774;2022-11-09T13:38:35;3.58;;;1.50;;
74158;SDS011;62511;47.970;11.774;2022-11-09T13:41:50;3.40;;;1.67;;
74158;SDS011;62511;47.970;11.774;2022-11-09T13:44:13;3.17;;;1.40;;
74158;SDS011;62511;47.970;11.774;2022-11-09T13:46:42;8.70;;;6.32;;
74158;SDS011;62511;47.970;11.774;2022-11-09T13:52:00;2.00;;;1.02;;
74158;SDS011;62511;47.970;11.774;2022-11-09T13:54:31;1.70;;;1.27;;
74158;SDS011;62511;47.970;11.774;2022-11-09T13:56:57;3.55;;;2.28;;
74158;SDS011;62511;47.970;11.774;2022-11-09T13:59:41;8.82;;;5.70;;
74158;SDS011;62511;47.970;11.774;2022-11-09T14:02:23;2.38;;;1.33;;
74158;SDS011;62511;47.970;11.774;2022-11-09T14:04:51;7.32;;;4.97;;
74158;SDS011;62511;47.970;11.774;2022-11-09T14:07:24;9.50;;;4.90;;
74158;SDS011;62511;47.970;11.774;2022-11-09T14:10:21;23.15;;;9.75;;
74158;SDS011;62511;47.970;11.774;2022-11-09T14:21:24;7.57;;;4.07;;
74158;SDS011;62511;47.970;11.774;2022-11-09T14:24:00;19.10;;;7.10;;
74158;SDS011;62511;47.970;11.774;2022-11-09T14:26:30;53.17;;;20.95;;
74158;SDS011;62511;47.970;11.774;2022-11-09T14:29:30;21.60;;;9.35;;
74158;SDS011;62511;47.970;11.774;2022-11-09T14:31:49;7.75;;;3.05;;
74158;SDS011;62511;47.970;11.774;2022-11-09T14:34:16;11.75;;;6.90;;
74158;SDS011;62511;47.970;11.774;2022-11-09T14:37:07;18.10;;;9.60;;
74158;SDS011;62511;47.970;11.774;2022-11-09T14:39:34;10.85;;;6.22;;
74158;SDS011;62511;47.970;11.774;2022-11-09T14:42:01;7.82;;;4.72;;
74158;SDS011;62511;47.970;11.774;2022-11-09T14:44:29;3.83;;;2.88;;
74158;SDS011;62511;47.970;11.774;2022-11-09T14:47:17;2.22;;;1.70;;
74158;SDS011;62511;47.970;11.774;2022-11-09T14:49:46;4.45;;;1.90;;
74158;SDS011;62511;47.970;11.774;2022-11-09T14:52:19;4.00;;;2.10;;
74158;SDS011;62511;47.970;11.774;2022-11-09T14:54:47;4.43;;;2.00;;
74158;SDS011;62511;47.970;11.774;2022-11-09T14:57:14;3.45;;;1.73;;
74158;SDS011;62511;47.970;11.774;2022-11-09T14:59:44;3.67;;;1.90;;
74158;SDS011;62511;47.970;11.774;2022-11-09T15:02:14;5.45;;;1.85;;
74158;SDS011;62511;47.970;11.774;2022-11-09T15:04:58;4.20;;;2.20;;
74158;SDS011;62511;47.970;11.774;2022-11-09T15:07:26;3.25;;;1.77;;
74158;SDS011;62511;47.970;11.774;2022-11-09T15:09:56;4.85;;;2.20;;
74158;SDS011;62511;47.970;11.774;2022-11-09T15:12:24;22.38;;;8.93;;
74158;SDS011;62511;47.970;11.774;2022-11-09T15:15:16;14.90;;;6.55;;
74158;SDS011;62511;47.970;11.774;2022-11-09T15:17:43;98.45;;;40.53;;
74158;SDS011;62511;47.970;11.774;2022-11-09T15:22:51;28.77;;;13.07;;
74158;SDS011;62511;47.970;11.774;2022-11-09T15:30:36;2.42;;;1.30;;
74158;SDS011;62511;47.970;11.774;2022-11-09T15:38:33;4.38;;;2.35;;
74158;SDS011;62511;47.970;11.774;2022-11-09T15:41:01;8.00;;;2.72;;
74158;SDS011;62511;47.970;11.774;2022-11-09T15:43:27;51.90;;;20.30;;
74158;SDS011;62511;47.970;11.774;2022-11-09T15:45:55;94.28;;;31.08;;
74158;SDS011;62511;47.970;11.774;2022-11-09T15:48:23;69.30;;;24.48;;
74158;SDS011;62511;47.970;11.774;2022-11-09T15:50:49;23.50;;;7.95;;
74158;SDS011;62511;47.970;11.774;2022-11-09T15:53:15;9.05;;;4.00;;
74158;SDS011;62511;47.970;11.774;2022-11-09T15:55:43;3.40;;;2.00;;
74158;SDS011;62511;47.970;11.774;2022-11-09T15:58:14;15.15;;;6.78;;
74158;SDS011;62511;47.970;11.774;2022-11-09T16:00:41;5.95;;;3.75;;
74158;SDS011;62511;47.970;11.774;2022-11-09T16:03:09;3.53;;;2.08;;
74158;SDS011;62511;47.970;11.774;2022-11-09T16:05:35;4.13;;;2.40;;
74158;SDS011;62511;47.970;11.774;2022-11-09T16:08:03;5.10;;;4.32;;
74158;SDS011;62511;47.970;11.774;2022-11-09T16:10:33;2.97;;;2.25;;
74158;SDS011;62511;47.970;11.774;2022-11-09T16:13:04;12.82;;;5.38;;
74158;SDS011;62511;47.970;11.774;2022-11-09T16:15:30;10.27;;;7.65;;
74158;SDS011;62511;47.970;11.774;2022-11-09T16:18:01;11.18;;;6.28;;
74158;SDS011;62511;47.970;11.774;2022-11-09T16:20:31;10.40;;;6.25;;
74158;SDS011;62511;47.970;11.774;2022-11-09T16:23:02;16.67;;;10.07;;
74158;SDS011;62511;47.970;11.774;2022-11-09T16:25:28;25.50;;;15.68;;
74158;SDS011;62511;47.970;11.774;2022-11-09T16:30:22;23.08;;;16.60;;
74158;SDS011;62511;47.970;11.774;2022-11-09T16:32:48;11.38;;;9.20;;
74158;SDS011;62511;47.970;11.774;2022-11-09T16:35:15;6.82;;;5.15;;